Waxahachie, Texas
Current Conditions -  °F | °C
As of 1:15 AM on Saturday 20 Dec 2014 (Local Time) from KJWY Reporting Station
Haze Haze  
Wind Chill: 42°   Ceiling: 800
Heat Index: 46°   Visibility: 4mi
Dew Point: 46°   Wind: 8mph
Humidity: 100%   Direction: 330°NNW
Pressure: 30.2"   Gusts: NA
Location:  32.39°N, 96.85°W
Report Text: KJWY 200715Z AUTO 33007KT 4SM BR OVC008 08/08 A3020 RMK AO2 T00800080
Loading
Personal Weather Stations






























Interactive Weather Map New forecast layout! Learn more

10-Day Weather Forecast

Advertisements
Track Severe Weather on mobile